createdAt,value
2023-01-01T00:01:19.776Z,58.22
2023-01-01T00:03:49.278Z,45.00
2023-01-01T00:06:15.641Z,43.03
2023-01-01T00:08:45.166Z,40.65
2023-01-01T00:11:11.547Z,50.33
2023-01-01T00:13:40.429Z,32.05
2023-01-01T00:16:11.381Z,31.45
2023-01-01T00:18:38.073Z,37.05
2023-01-01T00:21:09.708Z,29.38
2023-01-01T00:23:36.025Z,17.23
2023-01-01T00:26:08.848Z,21.55
2023-01-01T00:28:35.168Z,20.75
2023-01-01T00:31:05.927Z,19.60
2023-01-01T00:33:32.216Z,15.45
2023-01-01T00:36:05.182Z,17.48
2023-01-01T00:38:32.756Z,13.68
2023-01-01T00:40:59.109Z,17.67
2023-01-01T00:43:25.481Z,13.10
2023-01-01T00:45:54.552Z,14.45
2023-01-01T00:48:21.305Z,22.48
2023-01-01T00:50:48.164Z,14.45
2023-01-01T00:53:14.691Z,11.98
2023-01-01T00:55:41.254Z,12.73
2023-01-01T00:58:07.738Z,9.60
2023-01-01T01:00:34.281Z,9.98
2023-01-01T01:03:00.886Z,12.88
2023-01-01T01:05:27.566Z,10.95
2023-01-01T01:07:54.226Z,8.60
2023-01-01T01:10:25.944Z,10.23
2023-01-01T01:12:52.750Z,7.38
2023-01-01T01:15:19.524Z,7.78
2023-01-01T01:17:46.017Z,7.20
2023-01-01T01:20:12.718Z,6.40
2023-01-01T01:22:39.758Z,7.10
2023-01-01T01:25:06.437Z,8.07
2023-01-01T01:27:32.768Z,5.30
2023-01-01T01:29:59.156Z,6.78
2023-01-01T01:32:25.463Z,5.35
2023-01-01T01:34:51.773Z,5.53
2023-01-01T01:37:18.151Z,5.78
2023-01-01T01:39:47.843Z,5.10
2023-01-01T01:42:17.700Z,5.22
2023-01-01T01:44:47.563Z,5.03
2023-01-01T01:47:18.743Z,4.20
2023-01-01T01:49:45.384Z,3.33
2023-01-01T01:52:12.133Z,3.63
2023-01-01T01:54:38.716Z,3.72
2023-01-01T01:57:09.426Z,3.67
2023-01-01T01:59:38.235Z,2.75
2023-01-01T02:02:09.826Z,3.90
2023-01-01T02:04:36.408Z,3.03
2023-01-01T02:07:02.745Z,3.17
2023-01-01T02:09:29.275Z,3.05
2023-01-01T02:11:55.676Z,3.00
2023-01-01T02:14:21.994Z,2.22
2023-01-01T02:16:55.758Z,3.78
2023-01-01T02:19:24.961Z,4.10
2023-01-01T02:22:14.033Z,2.90
2023-01-01T02:24:50.269Z,2.63
2023-01-01T02:27:35.490Z,2.92
2023-01-01T02:30:03.291Z,3.35
2023-01-01T02:32:32.535Z,2.90
2023-01-01T02:35:21.149Z,3.33
2023-01-01T02:37:53.077Z,3.03
2023-01-01T02:40:21.236Z,2.70
2023-01-01T02:42:48.202Z,2.35
2023-01-01T02:45:14.725Z,2.65
2023-01-01T02:47:41.045Z,3.58
2023-01-01T02:50:13.903Z,3.03
2023-01-01T02:52:52.488Z,3.00
2023-01-01T02:55:18.867Z,2.50
2023-01-01T02:57:53.093Z,3.40
2023-01-01T03:00:24.429Z,2.55
2023-01-01T03:03:16.862Z,2.35
2023-01-01T03:06:09.272Z,2.97
2023-01-01T03:08:47.892Z,2.17
2023-01-01T03:11:15.913Z,2.10
2023-01-01T03:13:46.776Z,2.50
2023-01-01T03:16:27.377Z,2.13
2023-01-01T03:19:10.967Z,2.72
2023-01-01T03:21:57.976Z,1.77
2023-01-01T03:24:44.558Z,2.03
2023-01-01T03:27:17.553Z,1.83
2023-01-01T03:29:44.561Z,1.90
2023-01-01T03:32:14.385Z,3.03
2023-01-01T03:34:43.462Z,2.03
2023-01-01T03:37:12.746Z,2.58
2023-01-01T03:39:43.445Z,1.60
2023-01-01T03:42:12.784Z,2.40
2023-01-01T03:44:45.755Z,2.45
2023-01-01T03:47:12.294Z,1.92
2023-01-01T03:49:38.739Z,1.15
2023-01-01T03:52:12.687Z,1.00
2023-01-01T03:54:59.405Z,1.27
2023-01-01T03:57:26.010Z,3.10
2023-01-01T04:00:14.823Z,1.60
2023-01-01T04:03:01.550Z,1.00
2023-01-01T04:05:28.765Z,1.15
2023-01-01T04:07:55.467Z,1.15
2023-01-01T04:10:22.626Z,1.35
2023-01-01T04:12:53.731Z,1.30
2023-01-01T04:15:22.402Z,1.20
2023-01-01T04:17:48.761Z,1.92
2023-01-01T04:20:15.219Z,1.38
2023-01-01T04:22:41.616Z,0.88
2023-01-01T04:25:08.395Z,1.70
2023-01-01T04:27:34.748Z,1.60
2023-01-01T04:30:01.100Z,1.92
2023-01-01T04:32:27.524Z,1.85
2023-01-01T04:34:53.849Z,2.28
2023-01-01T04:37:20.198Z,2.17
2023-01-01T04:39:46.574Z,2.83
2023-01-01T04:42:12.949Z,2.00
2023-01-01T04:44:39.331Z,2.83
2023-01-01T04:47:05.757Z,2.38
2023-01-01T04:49:32.082Z,1.70
2023-01-01T04:51:58.383Z,2.13
2023-01-01T04:54:24.864Z,2.33
2023-01-01T04:56:51.181Z,2.55
2023-01-01T04:59:17.492Z,18.13
2023-01-01T05:01:44.009Z,2.03
2023-01-01T05:04:12.696Z,1.95
2023-01-01T05:06:39.134Z,1.92
2023-01-01T05:09:05.674Z,1.73
2023-01-01T05:11:32.449Z,1.83
2023-01-01T05:13:59.498Z,2.42
2023-01-01T05:16:26.871Z,2.13
2023-01-01T05:18:53.500Z,1.88
2023-01-01T05:21:21.311Z,2.00
2023-01-01T05:23:48.140Z,2.15
2023-01-01T05:26:19.120Z,1.90
2023-01-01T05:28:46.169Z,2.58
2023-01-01T05:31:13.884Z,1.77
2023-01-01T05:33:40.881Z,2.60
2023-01-01T05:36:14.239Z,2.25
2023-01-01T05:38:40.543Z,2.03
2023-01-01T05:41:08.039Z,1.90
2023-01-01T05:43:34.700Z,2.20
2023-01-01T05:46:05.447Z,3.63
2023-01-01T05:48:32.519Z,2.20
2023-01-01T05:51:22.206Z,2.38
2023-01-01T05:53:48.835Z,1.95
2023-01-01T05:56:16.065Z,2.63
2023-01-01T05:58:42.547Z,2.25
2023-01-01T06:01:25.451Z,2.08
2023-01-01T06:03:52.922Z,3.00
2023-01-01T06:06:20.943Z,2.30
2023-01-01T06:09:13.702Z,2.53
2023-01-01T06:11:40.124Z,2.40
2023-01-01T06:14:06.418Z,3.00
2023-01-01T06:16:32.903Z,1.98
2023-01-01T06:19:00.019Z,2.00
2023-01-01T06:21:27.368Z,2.35
2023-01-01T06:23:54.958Z,2.20
2023-01-01T06:26:25.362Z,2.40
2023-01-01T06:28:52.011Z,2.20
2023-01-01T06:31:19.572Z,1.98
2023-01-01T06:33:46.794Z,2.60
2023-01-01T06:36:14.159Z,2.53
2023-01-01T06:38:41.901Z,2.22
2023-01-01T06:41:10.690Z,2.65
2023-01-01T06:43:37.553Z,2.30
2023-01-01T06:46:08.145Z,2.42
2023-01-01T06:48:35.584Z,2.63
2023-01-01T06:51:06.996Z,2.33
2023-01-01T06:53:33.366Z,2.83
2023-01-01T06:55:59.877Z,2.75
2023-01-01T06:58:26.288Z,2.38
2023-01-01T07:00:52.685Z,9.73
2023-01-01T07:03:19.219Z,2.67
2023-01-01T07:05:45.582Z,1.83
2023-01-01T07:08:11.929Z,2.33
2023-01-01T07:10:38.270Z,2.30
2023-01-01T07:13:04.705Z,2.00
2023-01-01T07:15:31.630Z,2.00
2023-01-01T07:17:58.017Z,2.28
2023-01-01T07:20:24.720Z,2.83
2023-01-01T07:22:51.114Z,1.83
2023-01-01T07:25:17.485Z,2.33
2023-01-01T07:27:43.857Z,2.40
2023-01-01T07:30:10.570Z,1.75
2023-01-01T07:32:36.895Z,2.13
2023-01-01T07:35:03.281Z,2.17
2023-01-01T07:37:29.737Z,1.80
2023-01-01T07:39:56.145Z,1.83
2023-01-01T07:42:22.635Z,1.80
2023-01-01T07:44:48.941Z,2.10
2023-01-01T07:47:20.718Z,2.20
2023-01-01T07:49:47.129Z,1.77
2023-01-01T07:52:13.527Z,1.60
2023-01-01T07:54:39.832Z,1.80
2023-01-01T07:57:06.193Z,1.45
2023-01-01T07:59:32.584Z,2.00
2023-01-01T08:01:58.992Z,2.00
2023-01-01T08:04:26.770Z,1.27
2023-01-01T08:06:53.499Z,1.73
2023-01-01T08:09:19.832Z,1.80
2023-01-01T08:11:46.488Z,1.70
2023-01-01T08:14:12.892Z,1.48
2023-01-01T08:16:39.200Z,1.90
2023-01-01T08:19:05.606Z,1.42
2023-01-01T08:21:32.018Z,1.90
2023-01-01T08:23:58.444Z,2.13
2023-01-01T08:26:29.292Z,2.63
2023-01-01T08:28:57.520Z,1.75
2023-01-01T08:31:24.247Z,1.60
2023-01-01T08:33:50.895Z,3.00
2023-01-01T08:36:17.373Z,1.73
2023-01-01T08:38:43.730Z,2.00
2023-01-01T08:41:10.115Z,1.35
2023-01-01T08:43:36.487Z,2.10
2023-01-01T08:46:02.864Z,2.15
2023-01-01T08:48:31.026Z,2.47
2023-01-01T08:51:01.695Z,1.25
2023-01-01T08:53:28.460Z,1.95
2023-01-01T08:56:02.001Z,1.58
2023-01-01T08:58:28.397Z,2.17
2023-01-01T09:00:54.824Z,1.90
2023-01-01T09:03:21.481Z,2.03
2023-01-01T09:05:47.879Z,2.00
2023-01-01T09:08:17.510Z,1.83
2023-01-01T09:10:44.245Z,2.05
2023-01-01T09:13:11.193Z,1.80
2023-01-01T09:15:37.741Z,1.88
2023-01-01T09:18:04.196Z,1.58
2023-01-01T09:20:30.630Z,1.67
2023-01-01T09:23:01.027Z,1.30
2023-01-01T09:25:30.692Z,1.35
2023-01-01T09:28:00.848Z,1.77
2023-01-01T09:30:27.221Z,1.73
2023-01-01T09:32:53.605Z,1.60
2023-01-01T09:35:20.165Z,1.95
2023-01-01T09:37:46.665Z,1.67
2023-01-01T09:40:31.940Z,2.10
2023-01-01T09:43:13.438Z,2.35
2023-01-01T09:46:00.249Z,2.05
2023-01-01T09:48:28.670Z,1.50
2023-01-01T09:50:55.620Z,1.45
2023-01-01T09:53:48.291Z,1.60
2023-01-01T09:56:17.285Z,1.33
2023-01-01T09:58:43.651Z,2.05
2023-01-01T10:01:18.779Z,2.05
2023-01-01T10:03:50.749Z,1.60
2023-01-01T10:06:30.515Z,2.35
2023-01-01T10:09:02.988Z,1.45
2023-01-01T10:11:35.567Z,1.50
2023-01-01T10:14:05.970Z,2.13
2023-01-01T10:16:39.303Z,1.75
2023-01-01T10:19:25.944Z,1.40
2023-01-01T10:21:54.312Z,1.30
2023-01-01T10:24:20.628Z,1.77
2023-01-01T10:26:47.928Z,2.10
2023-01-01T10:29:37.636Z,1.75
2023-01-01T10:32:27.401Z,1.92
2023-01-01T10:34:53.807Z,2.05
2023-01-01T10:37:20.656Z,1.77
2023-01-01T10:39:47.807Z,1.83
2023-01-01T10:42:15.117Z,1.80
2023-01-01T10:44:42.194Z,2.13
2023-01-01T10:47:22.327Z,1.63
2023-01-01T10:49:56.056Z,2.17
2023-01-01T10:52:34.941Z,2.08
2023-01-01T10:55:01.499Z,1.65
2023-01-01T10:57:27.820Z,1.60
2023-01-01T10:59:54.744Z,1.92
2023-01-01T11:02:24.177Z,2.58
2023-01-01T11:04:51.698Z,1.65
2023-01-01T11:07:47.468Z,2.28
2023-01-01T11:10:18.667Z,1.53
2023-01-01T11:15:39.612Z,2.13
2023-01-01T11:18:07.100Z,2.00
2023-01-01T11:20:33.960Z,1.98
2023-01-01T11:23:16.784Z,2.58
2023-01-01T11:25:55.902Z,2.15
2023-01-01T11:28:22.702Z,2.03
2023-01-01T11:31:07.461Z,2.28
2023-01-01T11:33:35.989Z,1.85
2023-01-01T11:36:02.558Z,2.15
2023-01-01T11:38:30.390Z,2.15
2023-01-01T11:41:02.305Z,1.98
2023-01-01T11:43:30.898Z,1.95
2023-01-01T11:45:58.633Z,2.30
2023-01-01T11:48:29.743Z,1.92
2023-01-01T11:50:57.677Z,1.30
2023-01-01T11:53:24.370Z,2.45
2023-01-01T11:56:00.065Z,2.45
2023-01-01T11:58:37.902Z,1.80
2023-01-01T12:01:11.803Z,2.40
2023-01-01T12:03:41.381Z,1.88
2023-01-01T12:06:21.021Z,2.20
2023-01-01T12:08:56.315Z,2.45
2023-01-01T12:11:45.686Z,1.83
2023-01-01T12:14:32.884Z,1.90
2023-01-01T12:16:59.573Z,2.22
2023-01-01T12:19:35.468Z,2.25
2023-01-01T12:22:02.025Z,2.20
2023-01-01T12:24:33.322Z,1.70
2023-01-01T12:27:18.527Z,1.88
2023-01-01T12:29:53.280Z,1.67
2023-01-01T12:32:19.595Z,2.15
2023-01-01T12:35:09.990Z,1.95
2023-01-01T12:37:51.326Z,2.53
2023-01-01T12:40:29.754Z,1.67
2023-01-01T12:43:01.480Z,2.25
2023-01-01T12:46:06.169Z,2.30
2023-01-01T12:48:35.286Z,1.42
2023-01-01T12:51:19.798Z,2.17
2023-01-01T12:53:48.876Z,2.30
2023-01-01T12:56:38.390Z,2.25
2023-01-01T12:59:07.672Z,2.55
2023-01-01T13:01:35.271Z,2.53
2023-01-01T13:04:11.115Z,2.40
2023-01-01T13:06:42.755Z,2.67
2023-01-01T13:09:16.769Z,2.03
2023-01-01T13:11:45.496Z,2.60
2023-01-01T13:14:12.092Z,2.55
2023-01-01T13:16:41.338Z,3.30
2023-01-01T13:19:23.436Z,2.05
2023-01-01T13:21:49.779Z,2.05
2023-01-01T13:24:23.377Z,2.05
2023-01-01T13:26:50.188Z,2.10
2023-01-01T13:29:19.544Z,2.40
2023-01-01T13:31:49.104Z,2.08
2023-01-01T13:34:30.943Z,2.60
2023-01-01T13:37:13.968Z,2.53
2023-01-01T13:40:00.728Z,2.83
2023-01-01T13:42:51.826Z,2.67
2023-01-01T13:45:36.893Z,2.30
2023-01-01T13:55:35.902Z,2.28
2023-01-01T13:58:02.224Z,2.28
2023-01-01T14:00:49.968Z,2.13
2023-01-01T14:03:18.086Z,2.67
2023-01-01T14:05:47.663Z,2.80
2023-01-01T14:08:36.041Z,2.45
2023-01-01T14:11:03.308Z,1.90
2023-01-01T14:13:32.370Z,2.53
2023-01-01T14:16:01.006Z,2.00
2023-01-01T14:18:34.020Z,1.65
2023-01-01T14:21:00.555Z,2.70
2023-01-01T14:23:26.910Z,2.53
2023-01-01T14:25:53.342Z,2.25
2023-01-01T14:28:26.874Z,1.98
2023-01-01T14:30:54.565Z,2.33
2023-01-01T14:33:28.535Z,2.65
2023-01-01T14:35:56.151Z,2.28
2023-01-01T14:38:29.715Z,2.17
2023-01-01T14:41:06.678Z,2.00
2023-01-01T14:43:35.143Z,1.85
2023-01-01T14:46:04.799Z,2.45
2023-01-01T14:48:36.048Z,2.70
2023-01-01T14:51:02.737Z,2.30
2023-01-01T14:53:33.274Z,3.10
2023-01-01T14:55:59.890Z,3.05
2023-01-01T14:58:28.201Z,2.63
2023-01-01T15:00:54.717Z,2.13
2023-01-01T15:03:22.831Z,1.85
2023-01-01T15:06:02.538Z,2.65
2023-01-01T15:08:29.009Z,2.90
2023-01-01T15:10:55.965Z,2.72
2023-01-01T15:13:23.592Z,2.10
2023-01-01T15:15:51.476Z,2.00
2023-01-01T15:18:36.764Z,2.70
2023-01-01T15:21:08.807Z,2.00
2023-01-01T15:23:36.012Z,1.80
2023-01-01T15:26:02.579Z,2.30
2023-01-01T15:28:28.955Z,2.10
2023-01-01T15:30:56.279Z,2.40
2023-01-01T15:33:22.949Z,2.40
2023-01-01T15:35:50.193Z,2.63
2023-01-01T15:38:24.019Z,1.88
2023-01-01T15:40:53.641Z,2.20
2023-01-01T15:43:21.682Z,1.98
2023-01-01T15:45:52.514Z,2.00
2023-01-01T15:48:20.639Z,2.47
2023-01-01T15:50:50.005Z,2.38
2023-01-01T15:53:20.040Z,2.33
2023-01-01T15:55:49.156Z,2.38
2023-01-01T15:58:22.394Z,2.13
2023-01-01T16:00:55.574Z,2.25
2023-01-01T16:03:22.556Z,2.50
2023-01-01T16:05:53.167Z,2.55
2023-01-01T16:08:22.167Z,2.60
2023-01-01T16:10:48.817Z,2.50
2023-01-01T16:13:15.792Z,1.92
2023-01-01T16:15:49.802Z,2.42
2023-01-01T16:18:17.450Z,2.38
2023-01-01T16:20:44.459Z,1.95
2023-01-01T16:23:10.821Z,2.50
2023-01-01T16:25:37.183Z,2.60
2023-01-01T16:28:05.457Z,2.67
2023-01-01T16:30:32.144Z,2.45
2023-01-01T16:32:58.591Z,2.95
2023-01-01T16:35:24.941Z,2.28
2023-01-01T16:37:51.432Z,2.72
2023-01-01T16:40:17.755Z,2.08
2023-01-01T16:42:44.183Z,2.65
2023-01-01T16:45:16.253Z,2.90
2023-01-01T16:47:42.572Z,2.35
2023-01-01T16:50:09.639Z,2.33
2023-01-01T16:52:40.872Z,3.03
2023-01-01T16:55:10.792Z,2.80
2023-01-01T16:57:37.458Z,3.08
2023-01-01T17:00:04.332Z,3.13
2023-01-01T17:02:30.774Z,3.03
2023-01-01T17:04:57.510Z,2.50
2023-01-01T17:07:23.937Z,2.75
2023-01-01T17:09:50.390Z,2.67
2023-01-01T17:12:16.794Z,3.50
2023-01-01T17:14:43.130Z,3.40
2023-01-01T17:17:09.574Z,3.60
2023-01-01T17:19:35.974Z,3.60
2023-01-01T17:22:04.512Z,3.38
2023-01-01T17:24:31.249Z,3.00
2023-01-01T17:26:57.641Z,3.28
2023-01-01T17:29:24.796Z,3.20
2023-01-01T17:31:51.571Z,2.47
2023-01-01T17:34:18.499Z,2.55
2023-01-01T17:36:45.187Z,2.70
2023-01-01T17:39:12.813Z,3.20
2023-01-01T17:41:40.047Z,2.97
2023-01-01T17:44:06.516Z,3.53
2023-01-01T17:46:33.222Z,3.17
2023-01-01T17:49:00.347Z,3.42
2023-01-01T17:51:27.124Z,2.88
2023-01-01T17:53:54.168Z,3.58
2023-01-01T17:56:22.138Z,2.38
2023-01-01T17:58:49.687Z,3.28
2023-01-01T18:01:19.181Z,4.13
2023-01-01T18:03:45.704Z,3.38
2023-01-01T18:06:12.132Z,3.33
2023-01-01T18:08:38.502Z,3.08
2023-01-01T18:11:05.039Z,3.05
2023-01-01T18:13:31.604Z,3.20
2023-01-01T18:16:01.766Z,2.70
2023-01-01T18:18:28.592Z,2.63
2023-01-01T18:21:01.168Z,2.83
2023-01-01T18:23:31.203Z,3.17
2023-01-01T18:25:59.822Z,3.03
2023-01-01T18:28:26.177Z,3.03
2023-01-01T18:30:52.594Z,2.70
2023-01-01T18:33:18.930Z,3.53
2023-01-01T18:35:45.276Z,2.67
2023-01-01T18:38:12.562Z,2.63
2023-01-01T18:40:42.447Z,3.28
2023-01-01T18:43:11.535Z,2.78
2023-01-01T18:45:37.874Z,3.47
2023-01-01T18:48:09.749Z,2.65
2023-01-01T18:50:36.666Z,3.03
2023-01-01T18:53:11.544Z,3.60
2023-01-01T18:55:38.041Z,2.67
2023-01-01T18:58:32.806Z,2.88
2023-01-01T19:00:59.339Z,2.92
2023-01-01T19:03:29.326Z,3.33
2023-01-01T19:05:56.319Z,2.65
2023-01-01T19:08:23.256Z,2.58
2023-01-01T19:10:54.450Z,2.67
2023-01-01T19:13:22.128Z,3.13
2023-01-01T19:15:51.514Z,2.83
2023-01-01T19:18:19.918Z,3.42
2023-01-01T19:20:46.790Z,2.70
2023-01-01T19:23:17.077Z,3.58
2023-01-01T19:25:43.439Z,2.42
2023-01-01T19:28:19.070Z,3.50
2023-01-01T19:30:46.145Z,3.65
2023-01-01T19:33:13.215Z,3.55
2023-01-01T19:35:39.610Z,3.33
2023-01-01T19:38:06.012Z,3.25
2023-01-01T19:40:32.553Z,2.70
2023-01-01T19:42:58.878Z,3.25
2023-01-01T19:45:25.580Z,3.25
2023-01-01T19:47:51.940Z,2.97
2023-01-01T19:50:18.318Z,3.45
2023-01-01T19:52:45.052Z,3.08
2023-01-01T19:55:11.486Z,3.17
2023-01-01T19:57:37.823Z,2.75
2023-01-01T20:00:04.511Z,2.45
2023-01-01T20:02:47.595Z,2.33
2023-01-01T20:05:14.764Z,2.20
2023-01-01T20:07:41.128Z,2.67
2023-01-01T20:10:07.686Z,2.45
2023-01-01T20:12:34.045Z,2.50
2023-01-01T20:15:00.440Z,2.13
2023-01-01T20:17:26.823Z,3.05
2023-01-01T20:19:54.695Z,2.22
2023-01-01T20:22:22.021Z,2.50
2023-01-01T20:24:48.542Z,1.73
2023-01-01T20:27:17.682Z,1.92
2023-01-01T20:29:44.490Z,2.15
2023-01-01T20:32:12.832Z,1.95
2023-01-01T20:34:39.965Z,2.50
2023-01-01T20:37:25.027Z,1.88
2023-01-01T20:39:51.440Z,1.73
2023-01-01T20:42:17.793Z,2.20
2023-01-01T20:44:44.249Z,2.20
2023-01-01T20:47:10.973Z,1.90
2023-01-01T20:49:37.356Z,1.90
2023-01-01T20:52:03.728Z,2.00
2023-01-01T20:54:30.123Z,1.83
2023-01-01T20:56:56.497Z,1.98
2023-01-01T20:59:38.952Z,2.00
2023-01-01T21:02:09.903Z,2.10
2023-01-01T21:04:38.795Z,1.90
2023-01-01T21:07:06.496Z,2.05
2023-01-01T21:09:32.861Z,1.77
2023-01-01T21:12:00.034Z,2.20
2023-01-01T21:14:26.452Z,2.10
2023-01-01T21:16:52.892Z,2.22
2023-01-01T21:19:26.130Z,2.67
2023-01-01T21:21:54.581Z,2.30
2023-01-01T21:24:25.848Z,2.80
2023-01-01T21:26:53.479Z,2.47
2023-01-01T21:29:20.788Z,2.30
2023-01-01T21:31:49.535Z,2.75
2023-01-01T21:34:31.109Z,2.70
2023-01-01T21:37:01.590Z,2.63
2023-01-01T21:39:28.837Z,2.92
2023-01-01T21:42:09.019Z,3.20
2023-01-01T21:44:35.393Z,2.90
2023-01-01T21:47:02.268Z,2.80
2023-01-01T21:49:36.508Z,4.03
2023-01-01T21:52:03.193Z,2.72
2023-01-01T21:54:34.004Z,2.63
2023-01-01T21:57:02.260Z,2.70
2023-01-01T21:59:31.404Z,3.20
2023-01-01T22:02:15.404Z,3.13
2023-01-01T22:04:43.968Z,2.53
2023-01-01T22:07:56.011Z,3.22
2023-01-01T22:10:12.606Z,2.85
2023-01-01T22:12:39.008Z,3.17
2023-01-01T22:15:28.197Z,3.30
2023-01-01T22:18:12.692Z,2.97
2023-01-01T22:20:39.564Z,2.58
2023-01-01T22:23:19.062Z,2.88
2023-01-01T22:25:46.041Z,2.63
2023-01-01T22:28:18.938Z,2.80
2023-01-01T22:30:45.430Z,3.40
2023-01-01T22:33:13.874Z,3.38
2023-01-01T22:35:40.233Z,2.40
2023-01-01T22:38:06.865Z,3.13
2023-01-01T22:40:40.586Z,2.90
2023-01-01T22:43:09.649Z,2.60
2023-01-01T22:45:41.572Z,3.80
2023-01-01T22:48:10.737Z,2.97
2023-01-01T22:50:38.590Z,3.90
2023-01-01T22:53:04.915Z,3.33
2023-01-01T22:55:31.208Z,3.00
2023-01-01T22:57:57.532Z,2.80
2023-01-01T23:00:23.900Z,3.30
2023-01-01T23:02:50.248Z,3.22
2023-01-01T23:05:16.613Z,3.42
2023-01-01T23:07:43.469Z,3.55
2023-01-01T23:10:13.495Z,3.70
2023-01-01T23:12:39.899Z,3.03
2023-01-01T23:15:25.263Z,3.40
2023-01-01T23:17:51.600Z,3.53
2023-01-01T23:20:18.521Z,3.45
2023-01-01T23:22:46.747Z,3.38
2023-01-01T23:25:14.948Z,3.65
2023-01-01T23:27:41.672Z,3.35
2023-01-01T23:30:08.696Z,2.70
2023-01-01T23:32:35.699Z,2.63
2023-01-01T23:35:02.363Z,2.70
2023-01-01T23:37:28.743Z,3.22
2023-01-01T23:39:55.081Z,2.88
2023-01-01T23:42:21.400Z,3.30
2023-01-01T23:44:47.725Z,3.20
2023-01-01T23:47:14.164Z,3.28
2023-01-01T23:49:41.089Z,3.00
2023-01-01T23:52:07.922Z,2.38
2023-01-01T23:54:34.268Z,3.83
2023-01-01T23:57:00.692Z,3.08
2023-01-01T23:59:27.080Z,3.25
